Aérodrome :
LOGIN :

S'inscrire | Disclaimer

   EN    FR    IT 

 










Légende :    VFR   VFR Marginal   IFR   IFR Intensif   IFR Très Intensif
Visi : 
Plafond : 
>= 8 km
>= 3000ft
5 à 8 km
1000 à 3000 ft
1500m à 5 km
500 à 1000 ft
800 à 1500m
200 à 500 ft
< 800m
< 200 ft
Symboles :   Orages  Brouillard  Fortes neiges  Fortes précipitations  Vent > 20 kt
SIGMETs :   Divers  Orages  Givrage  Turbulence  Onde Orograph.  Cendres Volcan.







- Altitude de l'aérodrome : 499 ft
- Code IATA : TLS
- Voir les cartes d'approche


LFBO - Toulouse / Blagnac

DERNIER METAR :
  • 130930Z AUTO 16009KT 9999 -RA BKN046 OVC054 07/03 Q1007 NOSIG

METARs EXPIRÉS :
  • 130900Z AUTO 14013KT CAVOK 06/03 Q1007 NOSIG
  • 130830Z AUTO 14010KT CAVOK 06/03 Q1007 NOSIG
  • 130800Z AUTO 14011KT CAVOK 07/03 Q1007 NOSIG
  • 130730Z AUTO 14010KT CAVOK 07/03 Q1007 NOSIG
  • 130700Z AUTO 15010KT 9999 FEW009 BKN100 OVC150 06/04 Q1007 NOSIG

TAF TAF LFBO
Valide du 13 à 06h jusqu'au 14 à 12h UTC


130500Z 1306/1412 12004KT CAVOK
BECMG 1310/1312 -RA OVC020
TEMPO 1312/1317 3000 RA BKN007
BECMG 1315/1317 25010KT
TEMPO 1400/1408 BKN007
BECMG 1409/1411 31008KT
ATIS : +33 5 62 74 66 36
Pas de NOTAMs connus pour ce terrain.
1 SIGMET publié pour la FIR Bordeaux (LFBB) :
 
Turbulence forte
LFBB SIGMET 3 VALID 130720/131000 LFPW
LFBB BORDEAUX FIR/UIR SEV TURB OBS AT 0720Z WI N4230 E00045 - N4300 W00145 - N4630 W00130 - N4630 W00015 - N4700 W00015 - N4645 E00100 - N4230 E00045 FL300/390 MOV E 20KT NC=



MET'MAP, la Météo Aéronautique d'un coup d'oeil ! - Copyright ORBIFLY Décembre 2007 - Disclaimer

ORBIFLY MET'MAP TEAM :

Programmation & Développement : Alexandra Zaïnal
Conception & Développement : Baudouin d'Aumeries
Co-Programmation & Développement : Marc-Olivier Méhu
Soutien technique & logistique : Manuel Goepfert

Contact : metmap@orbifly.com




SOURCES & CREDITS :

   NOAA